METAR Data
IDs: Format: Raw Decoded Include TAF

Data at: 1419 UTC 12 Dec 2018

PACM 121356Z AUTO 21015KT 10SM OVC080 M07/M13 A2913 RMK AO2 SLP859 T10671128 FZRANO
PACM 121256Z AUTO 22014KT 10SM FEW080 M07/M13 A2913 RMK AO2 SLP859 T10671128 FZRANO
PACM 121156Z AUTO 22012KT 10SM BKN045 M07/M12 A2913 RMK AO2 SNB04E17 SLP861 P0000 60000 T10671122 11061 21072 51003 FZRANO
PACM 121056Z AUTO 23013KT 10SM BKN044 M07/M12 A2913 RMK AO2 SLP861 T10671122 FZRANO
PACM 120956Z AUTO 24013KT 9SM SCT039 BKN050 M07/M12 A2913 RMK AO2 SNB41E53 SLP859 P0000 T10671117 FZRANO
PACM 120856Z AUTO 23015KT 10SM SCT050 M07/M13 A2912 RMK AO2 SLP858 T10671128 410441072 51002 FZRANO
PACM 120756Z AUTO 26020KT 10SM SCT047 BKN055 M07/M12 A2912 RMK AO2 SLP857 T10671117 FZRANO
PACM 120656Z AUTO 26017KT 10SM BKN042 OVC048 M06/M11 A2913 RMK AO2 SLP859 T10611111 FZRANO
PACM 120556Z AUTO 27018KT 10SM SCT037 BKN050 OVC055 M06/M11 A2912 RMK AO2 SNB31E44 SLP856 P0000 60000 T10611106 11056 21067 51009 FZRANO
PACM 120456Z AUTO 26018KT 10SM BKN055 M07/M11 A2911 RMK AO2 SNB01E12 SLP855 P0000 T10671106 FZRANO
PACM 120356Z AUTO 26022KT 9SM SCT030 SCT035 OVC060 M06/M10 A2910 RMK AO2 PK WND 27027/0302 SNE56 SLP850 P0000 T10611100 FZRANO
PACM 120256Z AUTO 28021KT 5SM -SN SCT033 BKN047 BKN060 M06/M09 A2909 RMK AO2 PK WND 27029/0232 SNB44 SLP847 P0000 60000 T10611094 51010 FZRANO
PACM 120156Z AUTO 27021KT 10SM CLR M07/M10 A2908 RMK AO2 PK WND 27026/0149 SLP844 T10671100 FZRANO
PACM 120056Z AUTO 27022KT 10SM SCT026 BKN037 BKN049 M06/M08 A2907 RMK AO2 PK WND 26031/0007 UPB03E30SNE03B05E15 SLP841 P0000 T10561083 FZRANO
PACM 120024Z AUTO 26024KT 3SM UP BR FEW029 M06/M07 A2907 RMK AO2 PK WND 26031/0007 UPB03SNE03B05E15 P0000 FZRANO
PACM 120015Z AUTO 26023G29KT 1 1/2SM UP BR FEW029 M07/M08 A2907 RMK AO2 PK WND 26031/0007 VIS 1V2 1/2 UPB03SNE03B05E15 P0000 FZRANO
PACM 112356Z AUTO 27027G30KT 2 1/2SM -SN BR FEW020 BKN037 OVC065 M06/M07 A2906 RMK AO2 PK WND 27036/2310 VIS 1 3/4V4 SLP836 P0000 60000 T10561067 11044 21061 53010 FZRANO
PACM 112352Z AUTO 27025G30KT 2 1/2SM -SN BR SCT020 BKN028 OVC048 M06/M07 A2906 RMK AO2 PK WND 27036/2310 VIS 1 3/4V4 P0000 FZRANO
PACM 112345Z AUTO 27026KT 1 1/4SM -SN BR SCT022 BKN030 OVC065 M06/M07 A2905 RMK AO2 PK WND 27036/2310 P0000 FZRANO
PACM 112338Z AUTO 27028KT 3/4SM -SN BR SCT020 BKN027 OVC044 M06/M07 A2905 RMK AO2 PK WND 27036/2310 P0000 FZRANO
PACM 112330Z AUTO 26027G33KT 1/4SM SN FZFG FEW012 BKN020 OVC026 M05/M06 A2905 RMK AO2 PK WND 27036/2310 P0000 FZRANO
PACM 112315Z AUTO 26029G36KT 1/2SM -SN FZFG FEW012 BKN020 OVC025 M05/M06 A2904 RMK AO2 PK WND 27036/2310 P0000 FZRANO
PACM 112307Z AUTO 26030G35KT 1SM -SN BR SCT012 BKN020 OVC027 M05/M06 A2903 RMK AO2 PK WND 26035/2307 P0000 FZRANO
PACM 112256Z AUTO 27021KT 2SM -SN BR SCT020 BKN025 OVC055 M04/M06 A2904 RMK AO2 PK WND 26028/2249 VIS 1V5 UPB15E34SNE15B41 SLP829 P0000 T10441061 FZRANO
PACM 112249Z AUTO 26025KT 2 1/2SM -SN BR BKN025 BKN030 OVC055 M04/M07 A2903 RMK AO2 PK WND 26028/2249 VIS 1V5 UPB15E34SNE15B41 P0000 FZRANO
PACM 112228Z AUTO 28020KT 8SM UP SCT023 OVC050 M05/M07 A2903 RMK AO2 UPB15SNE15 P0000 FZRANO
PACM 112211Z AUTO 27019KT 3SM -SN BR SCT007 OVC021 M04/M06 A2903 RMK AO2 P0000 FZRANO
PACM 112203Z AUTO 27018G23KT 2SM -SN BR SCT007 BKN019 OVC025 M04/M06 A2903 RMK AO2 VIS 1V5 P0000 FZRANO
PACM 112159Z AUTO 29016KT 1SM -SN BR SCT007 BKN010 OVC019 M05/M06 A2903 RMK AO2 P0000 FZRANO
PACM 112156Z AUTO 29017KT 1/2SM -SN FZFG SCT007 BKN010 OVC026 M05/M06 A2903 RMK AO2 PK WND 24033/2109 SLP826 P0000 T10501061 FZRANO
PACM 112146Z AUTO 26013KT 3/4SM -SN BR SCT007 BKN011 OVC028 M05/M06 A2903 RMK AO2 PK WND 24033/2109 P0000 FZRANO
PACM 112143Z AUTO 25012KT 1SM -SN BR SCT009 BKN018 OVC031 M05/M06 A2903 RMK AO2 PK WND 24033/2109 P0000 FZRANO
PACM 112136Z AUTO 25010KT 2 1/2SM -SN BR SCT013 BKN021 OVC031 M05/M06 A2903 RMK AO2 PK WND 24033/2109 VIS 1V5 P0000 FZRANO
PACM 112119Z AUTO 24019KT 3SM -SN BR FEW008 BKN012 OVC022 M05/M06 A2902 RMK AO2 PK WND 24033/2109 P0000 FZRANO
PACM 112116Z AUTO 26018G33KT 1 1/4SM -SN BR SCT008 BKN014 OVC022 M05/M06 A2902 RMK AO2 PK WND 24033/2109 P0000 FZRANO
PACM 112114Z AUTO 25022G33KT 3/4SM -SN BR SCT008 BKN014 OVC022 M05/M06 A2902 RMK AO2 PK WND 24033/2109 P0000 FZRANO
PACM 112112Z AUTO 24024G33KT 1/2SM -SN FZFG BKN008 BKN014 OVC022 M06/M07 A2901 RMK AO2 PK WND 24033/2109 CIG 005V012 P0000 FZRANO
PACM 112056Z AUTO 23023G34KT 1/4SM +SN FZFG SCT006 BKN011 OVC049 M06/M07 A2901 RMK AO2 PK WND 24034/2050 SLP820 P0000 60000 T10561072 58002 FZRANO
PACM 112049Z AUTO 24024G31KT 1/2SM -SN FZFG SCT009 BKN013 OVC047 M06/M07 A2901 RMK AO2 PK WND 23032/2035 P0000 FZRANO
PACM 112047Z AUTO 24027G31KT 1/2SM -SN FZFG SCT011 BKN020 OVC047 M06/M07 A2901 RMK AO2 PK WND 23032/2035 P0000 FZRANO
PACM 112045Z AUTO 24026G31KT 1SM -SN BR SCT013 BKN020 OVC047 M06/M07 A2901 RMK AO2 PK WND 23032/2035 P0000 FZRANO
PACM 111956Z AUTO 24026G32KT 2SM -SN BR BKN019 BKN024 OVC033 M06/M08 A2902 RMK AO2 PK WND 24032/1949 VIS 1 1/2V5 SLP823 P0000 T10611083 FZRANO
PACM 111947Z AUTO 24026KT 2 1/2SM -SN BR BKN022 BKN033 OVC047 M06/M08 A2902 RMK AO2 PK WND 25032/1930 VIS 1 1/2V5 P0000 FZRANO
PACM 111920Z AUTO 25026G30KT 6SM -SN BR SCT024 BKN046 OVC070 M06/M08 A2902 RMK AO2 PK WND 25031/1917 P0000 FZRANO
PACM 111909Z AUTO 25025G31KT 7SM -SN FEW011 BKN024 OVC070 M06/M08 A2903 RMK AO2 PK WND 26031/1905 P0000 FZRANO
PACM 111856Z AUTO 25024KT 4SM -SN BR FEW011 SCT028 OVC070 M06/M08 A2903 RMK AO2 PK WND 26034/1842 SLP825 P0000 T10611078 FZRANO
PACM 111853Z AUTO 25027G33KT 3SM -SN BR FEW011 BKN030 OVC070 M06/M08 A2902 RMK AO2 PK WND 26034/1842 P0000 FZRANO
PACM 111845Z AUTO 25029KT 1 3/4SM -SN BR FEW013 BKN022 OVC040 M06/M08 A2902 RMK AO2 PK WND 26034/1842 P0000 FZRANO
PACM 111838Z AUTO 26029KT 5SM -SN BR FEW011 BKN029 OVC070 M06/M08 A2902 RMK AO2 PK WND 26034/1819 P0000 FZRANO
PACM 111825Z AUTO 26025G34KT 2SM -SN BR FEW011 BKN021 OVC029 M06/M07 A2903 RMK AO2 PK WND 26034/1819 VIS 1 1/4V3 P0000 FZRANO
PACM 111813Z AUTO 26029KT 1SM -SN BR FEW007 BKN022 OVC030 M06/M08 A2902 RMK AO2 PK WND 25034/1803 P0000 FZRANO
PACM 111756Z AUTO 25027G33KT 1 1/2SM -SN BR FEW012 BKN025 OVC035 M06/M08 A2902 RMK AO2 PK WND 25033/1754 VIS 1/2V4 SLP821 P0000 60000 T10611078 11056 21061 51006 FZRANO
PACM 111754Z AUTO 25027G33KT 1 1/2SM -SN BR FEW012 BKN021 OVC033 M06/M08 A2901 RMK AO2 PK WND 25033/1754 VIS 1/2V4 P0000 FZRANO
PACM 111743Z AUTO 25025G31KT 6SM -SN SCT020 BKN028 OVC040 M06/M08 A2902 RMK AO2 PK WND 26033/1720 P0000 FZRANO
PACM 111656Z AUTO 26028G35KT 7SM -SN FEW018 OVC040 M06/M09 A2901 RMK AO2 PK WND 26035/1651 SLP818 P0000 T10561094 FZRANO
PACM 111642Z AUTO 26029G34KT 8SM -SN FEW020 SCT026 OVC042 M06/M09 A2901 RMK AO2 PK WND 26035/1610 P0000 FZRANO
PACM 111616Z AUTO 26026G35KT 4SM -SN BR SCT022 BKN028 OVC042 M06/M08 A2900 RMK AO2 PK WND 26035/1610 P0000 FZRANO
PACM 111556Z AUTO 26032KT 7SM -SN SCT024 BKN034 OVC065 M06/M08 A2900 RMK AO2 PK WND 27038/1518 SLP815 P0000 T10561083 FZRANO
PACM 111546Z AUTO 26029G34KT 7SM SCT024 BKN033 OVC065 M06/M08 A2900 RMK AO2 PK WND 27038/1518 SNE43 P0000 FZRANO
PACM 111456Z AUTO 26030G36KT 5SM -SN BR BKN024 OVC032 M06/M08 A2899 RMK AO2 PK WND 27037/1405 SNB00 SLP811 P0000 60000 T10561078 51008 FZRANO
PACM 111453Z AUTO 26030G36KT 4SM -SN BR SCT024 BKN030 OVC036 M06/M08 A2898 RMK AO2 PK WND 27037/1405 SNB00 P0000 FZRANO
PACM 111428Z AUTO 26032G36KT 2 1/2SM -SN BR FEW018 BKN024 OVC034 M06/M07 A2898 RMK AO2 PK WND 27037/1405 VIS 1 1/4V4 SNB00 P0000 FZRANO
PACM 111356Z AUTO 26030G35KT 8SM SCT024 SCT031 OVC045 M06/M08 A2898 RMK AO2 PK WND 27036/1323 SNB17E51 SLP808 P0000 T10561078 FZRANO
PACM 111335Z AUTO 27031G35KT 3SM -SN BR SCT024 BKN031 BKN045 M06/M08 A2898 RMK AO2 PK WND 27036/1323 SNB17 P0000 FZRANO
PACM 111330Z AUTO 27031G36KT 2 1/2SM -SN BR BKN024 BKN033 BKN045 M06/M08 A2898 RMK AO2 PK WND 27036/1323 SNB17 P0000 FZRANO
PACM 111256Z AUTO 27029G35KT 7SM FEW026 BKN060 M06/M08 A2897 RMK AO2 PK WND 27036/1214 SNE26 SLP807 P0000 T10561083 FZRANO
PACM 111219Z AUTO 28029G36KT 6SM -SN BR FEW015 BKN032 OVC050 M06/M08 A2897 RMK AO2 PK WND 27036/1214 P0000 FZRANO
PACM 111211Z AUTO 28027G33KT 2 1/2SM -SN BR SCT013 BKN020 BKN041 M06/M07 A2896 RMK AO2 PK WND 28033/1211 P0000 FZRANO
PACM 111156Z AUTO 27029G34KT 7SM -SN FEW013 SCT018 BKN041 M06/M07 A2896 RMK AO2 PK WND 28034/1153 SNE24B44 SLP803 P0000 60000 T10561072 11050 21067 51008 FZRANO
PACM 111056Z AUTO 28017G27KT 6SM -SN FEW018 SCT042 OVC050 M06/M08 A2895 RMK AO2 PK WND 29027/1050 SNB40 SLP800 P0000 T10561083 FZRANO
PACM 110956Z AUTO 28023KT 10SM BKN047 M06/M09 A2895 RMK AO2 SNB00E10 SLP800 P0000 T10611094 FZRANO
PACM 110856Z AUTO 29016KT 10SM FEW038 M07/M09 A2894 RMK AO2 SNE18 SLP795 P0000 60000 T10671089 410611144 53006 FZRANO
PACM 110756Z AUTO 28020KT 10SM -SN BKN035 OVC041 M07/M09 A2893 RMK AO2 PK WND 29026/0712 SNB56 SLP792 P0000 T10671094 FZRANO
PACM 110656Z AUTO 29022KT 10SM FEW020 SCT027 BKN035 M07/M10 A2892 RMK AO2 PK WND 29026/0649 SNE47 SLP790 P0000 T10671100 FZRANO
PACM 110632Z AUTO 28018KT 8SM -SN SCT021 BKN026 OVC033 M06/M08 A2892 RMK AO2 P0000 FZRANO
PACM 110556Z AUTO 29017KT 8SM -SN FEW025 OVC040 M07/M09 A2892 RMK AO2 SNE20B46 SLP789 P0000 60000 T10671089 11067 21100 55001 FZRANO
PACM 110456Z AUTO 29018KT 9SM -SN OVC036 M07/M09 A2891 RMK AO2 SLP786 P0000 T10671089 FZRANO
PACM 110356Z AUTO 30017KT 9SM -SN OVC037 M07/M08 A2892 RMK AO2 SLP790 P0000 T10671083 FZRANO
PACM 110256Z AUTO 28008KT 9SM -SN OVC033 M08/M09 A2892 RMK AO2 SLP790 P0000 60000 T10781089 53001 FZRANO